Time;durP1;ratioP1;P1;durP2;ratioP2;P2;SDS_P1;SDS_P2;PMS_P1;PMS_P2;Temp;Humidity;BMP_temperature;BMP_pressure;BME280_temperature;BME280_humidity;BME280_pressure;Samples;Min_cycle;Max_cycle;Signal;HPM_P1;HPM_P2
2022/11/27 00:00:24;;;;;;;1.85;0.43;;;5.70;99.90;;;;;;5079467;28;20047;-75
2022/11/27 00:02:50;;;;;;;0.40;0.40;;;5.70;99.90;;;;;;5078509;28;20041;-75
2022/11/27 00:05:15;;;;;;;0.55;0.55;;;5.70;99.90;;;;;;5079172;28;20102;-72
2022/11/27 00:07:41;;;;;;;0.70;0.68;;;5.90;99.90;;;;;;5079094;28;20044;-73
2022/11/27 00:10:07;;;;;;;0.93;0.88;;;5.90;99.90;;;;;;5059723;28;20506;-72
2022/11/27 00:12:34;;;;;;;0.22;0.22;;;5.80;99.90;;;;;;5077453;28;20112;-73
2022/11/27 00:14:59;;;;;;;0.10;0.10;;;6.50;99.90;;;;;;5077721;28;20040;-73
2022/11/27 00:17:25;;;;;;;4.90;1.23;;;5.90;99.90;;;;;;5077512;28;20041;-73
2022/11/27 00:19:51;;;;;;;2.83;1.08;;;5.90;99.90;;;;;;5077281;28;20071;-75
2022/11/27 00:22:16;;;;;;;3.85;2.00;;;5.90;99.90;;;;;;5077497;28;20048;-73
2022/11/27 00:24:43;;;;;;;0.98;0.85;;;5.80;99.90;;;;;;5077522;28;20100;-73
2022/11/27 00:27:09;;;;;;;0.40;0.40;;;5.80;99.90;;;;;;5077986;28;20072;-73
2022/11/27 00:29:34;;;;;;;1.83;0.38;;;5.80;99.90;;;;;;5077825;28;20071;-75
2022/11/27 00:32:00;;;;;;;0.88;0.88;;;5.80;99.90;;;;;;5077639;28;20569;-75
2022/11/27 00:34:26;;;;;;;0.38;0.38;;;5.80;99.90;;;;;;5078666;28;20045;-72
2022/11/27 00:36:52;;;;;;;0.10;0.10;;;5.70;99.90;;;;;;5078056;28;20047;-73
2022/11/27 00:39:18;;;;;;;1.55;1.45;;;5.70;99.90;;;;;;5079256;28;20056;-74
2022/11/27 00:41:44;;;;;;;2.00;1.85;;;5.70;99.90;;;;;;5078410;28;20076;-74
2022/11/27 00:44:11;;;;;;;3.22;1.05;;;5.60;99.90;;;;;;5078445;28;20056;-74
2022/11/27 00:46:36;;;;;;;0.25;0.25;;;5.60;99.90;;;;;;5078173;28;20563;-73
2022/11/27 00:49:04;;;;;;;0.20;0.20;;;5.60;99.90;;;;;;5078493;28;20052;-73
2022/11/27 00:51:30;;;;;;;0.28;0.28;;;5.50;99.90;;;;;;5076479;28;20155;-74
2022/11/27 00:53:57;;;;;;;1.98;0.75;;;5.50;99.90;;;;;;5076856;28;20056;-72
2022/11/27 00:56:25;;;;;;;1.05;0.98;;;5.50;99.90;;;;;;5078669;28;20048;-73
2022/11/27 00:58:52;;;;;;;0.10;0.10;;;5.60;99.90;;;;;;5077310;28;20079;-74
2022/11/27 01:01:20;;;;;;;0.20;0.20;;;5.60;99.90;;;;;;5078421;28;20040;-74
2022/11/27 01:03:47;;;;;;;1.27;1.17;;;5.50;99.90;;;;;;5077164;28;20044;-74
2022/11/27 01:06:14;;;;;;;0.45;0.45;;;5.40;99.90;;;;;;5078399;28;20060;-73
2022/11/27 01:08:39;;;;;;;1.48;1.05;;;5.40;99.90;;;;;;5077302;28;20036;-75
2022/11/27 01:11:06;;;;;;;0.22;0.22;;;5.40;99.90;;;;;;5077311;28;20130;-74
2022/11/27 01:13:34;;;;;;;0.82;0.80;;;5.40;99.90;;;;;;5059519;28;20087;-74
2022/11/27 01:16:16;;;;;;;0.22;0.22;;;5.40;99.90;;;;;;5077852;28;20125;-73
2022/11/27 01:18:44;;;;;;;0.25;0.25;;;5.30;99.90;;;;;;5078697;28;20063;-75
2022/11/27 01:21:10;;;;;;;0.17;0.17;;;5.40;99.90;;;;;;5076118;28;20066;-73
2022/11/27 01:23:36;;;;;;;0.03;0.03;;;5.40;99.90;;;;;;5077205;28;20083;-73
2022/11/27 01:26:05;;;;;;;0.35;0.35;;;5.30;99.90;;;;;;5077400;28;20044;-72
2022/11/27 01:28:31;;;;;;;2.00;1.17;;;5.40;99.90;;;;;;5079736;28;20036;-72
2022/11/27 01:30:56;;;;;;;0.25;0.13;;;5.40;99.90;;;;;;5078626;28;20063;-75
2022/11/27 01:33:22;;;;;;;0.10;0.10;;;5.30;99.90;;;;;;5078271;28;20041;-74
2022/11/27 01:36:00;;;;;;;0.85;0.73;;;5.40;99.90;;;;;;5077507;28;20521;-72
2022/11/27 01:38:26;;;;;;;0.35;0.35;;;5.40;99.90;;;;;;5078867;28;20083;-74
2022/11/27 01:41:02;;;;;;;4.05;1.95;;;5.30;99.90;;;;;;5077086;28;20063;-74
2022/11/27 01:43:37;;;;;;;1.00;0.43;;;5.30;99.90;;;;;;5079249;28;20052;-74
2022/11/27 01:46:03;;;;;;;0.00;0.00;;;5.30;99.90;;;;;;5077568;28;20104;-73
2022/11/27 01:48:28;;;;;;;3.92;1.70;;;5.30;99.90;;;;;;5076634;28;20048;-75
2022/11/27 01:50:54;;;;;;;0.00;0.00;;;5.30;99.90;;;;;;5077548;28;20043;-74
2022/11/27 01:53:20;;;;;;;25.45;1.45;;;5.30;99.90;;;;;;5078059;28;20044;-74
2022/11/27 01:55:54;;;;;;;0.20;0.20;;;5.30;99.90;;;;;;5077232;28;20056;-74
2022/11/27 01:58:26;;;;;;;0.10;0.10;;;5.30;99.90;;;;;;5075673;28;20055;-74
2022/11/27 02:00:52;;;;;;;0.08;0.08;;;5.30;99.90;;;;;;5078804;28;20128;-74
2022/11/27 02:03:18;;;;;;;0.43;0.38;;;5.30;95.80;;;;;;5076669;28;20036;-75
2022/11/27 02:05:44;;;;;;;0.25;0.25;;;5.20;85.80;;;;;;5076745;28;20106;-74
2022/11/27 02:08:12;;;;;;;0.77;0.77;;;5.20;78.30;;;;;;5077738;28;20036;-75
2022/11/27 02:10:41;;;;;;;0.00;0.00;;;5.50;79.10;;;;;;5079105;28;20066;-74
2022/11/27 02:13:13;;;;;;;0.25;0.25;;;5.20;54.00;;;;;;5078698;28;20071;-74
2022/11/27 02:16:09;;;;;;;0.30;0.30;;;5.30;28.80;;;;;;5079521;28;20088;-74
2022/11/27 02:18:56;;;;;;;1.02;0.98;;;5.30;1.00;;;;;;5080315;28;20660;-74
2022/11/27 02:21:38;;;;;;;10.98;1.67;;;5.30;1.00;;;;;;5061134;28;20059;-74
2022/11/27 02:24:30;;;;;;;0.40;0.40;;;5.30;1.00;;;;;;5077539;28;20049;-73
2022/11/27 02:27:17;;;;;;;5.72;3.35;;;5.40;1.00;;;;;;5078060;28;20057;-72
2022/11/27 02:29:45;;;;;;;0.22;0.20;;;5.50;1.00;;;;;;5076687;28;20618;-73
2022/11/27 02:32:30;;;;;;;0.08;0.08;;;5.50;99.90;;;;;;5077807;28;20051;-74
2022/11/27 02:35:05;;;;;;;0.80;0.55;;;5.50;99.90;;;;;;5075992;28;20054;-74
2022/11/27 02:37:42;;;;;;;1.00;1.00;;;5.50;99.90;;;;;;5076844;28;20045;-73
2022/11/27 02:40:15;;;;;;;0.45;0.45;;;5.50;99.90;;;;;;5076494;28;20075;-74
2022/11/27 02:42:50;;;;;;;0.40;0.40;;;5.50;99.90;;;;;;5076499;28;20095;-72
2022/11/27 02:45:22;;;;;;;0.30;0.30;;;5.60;99.90;;;;;;5076537;28;20098;-72
2022/11/27 02:47:49;;;;;;;5.70;1.42;;;5.60;99.90;;;;;;5083069;28;20060;-73
2022/11/27 02:50:22;;;;;;;0.68;0.68;;;5.60;99.90;;;;;;5083281;28;20055;-73
2022/11/27 02:52:50;;;;;;;1.98;1.58;;;5.60;99.90;;;;;;5082310;28;20049;-75
2022/11/27 02:55:20;;;;;;;2.63;2.05;;;5.60;99.90;;;;;;5081968;28;20100;-74
2022/11/27 02:57:46;;;;;;;0.30;0.30;;;5.70;99.90;;;;;;5081554;28;20098;-74
2022/11/27 03:00:13;;;;;;;1.70;1.25;;;5.80;1.00;;;;;;5112453;22;20203;-74
2022/11/27 03:02:45;;;;;;;1.10;0.77;;;5.80;36.10;;;;;;5064011;28;20501;-74
2022/11/27 03:05:15;;;;;;;1.98;1.58;;;5.80;1.00;;;;;;5066312;28;20040;-74
2022/11/27 03:07:52;;;;;;;0.57;0.45;;;5.90;12.00;;;;;;5086025;28;20489;-73
2022/11/27 03:10:28;;;;;;;0.93;0.63;;;5.90;1.00;;;;;;5084169;28;20051;-74
2022/11/27 03:12:54;;;;;;;0.28;0.25;;;5.80;16.90;;;;;;5067406;28;20158;-74
2022/11/27 03:15:23;;;;;;;0.17;0.17;;;5.90;1.00;;;;;;5085801;28;20043;-74
2022/11/27 03:18:04;;;;;;;0.28;0.28;;;6.00;99.90;;;;;;5076878;28;20052;-73
2022/11/27 03:20:36;;;;;;;0.22;0.22;;;6.00;99.90;;;;;;5073192;28;20132;-74
2022/11/27 03:23:01;;;;;;;0.50;0.50;;;6.00;99.90;;;;;;5085799;28;20048;-74
2022/11/27 03:25:27;;;;;;;0.38;0.38;;;6.00;99.90;;;;;;5086022;28;20101;-74
2022/11/27 03:28:03;;;;;;;0.20;0.20;;;6.00;1.00;;;;;;5085852;28;20044;-74
2022/11/27 03:30:29;;;;;;;0.13;0.13;;;6.10;18.70;;;;;;5085494;28;20043;-73
2022/11/27 03:32:55;;;;;;;0.70;0.65;;;6.00;28.60;;;;;;5085135;28;20040;-73
2022/11/27 03:35:24;;;;;;;0.13;0.13;;;6.00;99.90;;;;;;5072755;28;20071;-74
2022/11/27 03:37:51;;;;;;;3.60;1.65;;;6.00;84.00;;;;;;5076952;28;20047;-74
2022/11/27 03:40:18;;;;;;;0.52;0.52;;;6.00;1.00;;;;;;5085376;28;20127;-74
2022/11/27 03:42:55;;;;;;;0.75;0.65;;;6.00;1.00;;;;;;5085150;28;20043;-73
2022/11/27 03:45:55;;;;;;;0.25;0.25;;;5.90;99.90;;;;;;5085656;28;20513;-73
2022/11/27 03:48:34;;;;;;;0.82;0.70;;;5.90;99.90;;;;;;5066538;28;20048;-73
2022/11/27 03:51:16;;;;;;;0.75;0.75;;;5.90;99.90;;;;;;5103507;22;20059;-82
2022/11/27 03:53:47;;;;;;;0.10;0.10;;;5.80;99.90;;;;;;5069209;28;20079;-82
2022/11/27 03:56:52;;;;;;;3.28;0.65;;;5.80;99.90;;;;;;5087657;28;20160;-83
2022/11/27 03:59:32;;;;;;;0.15;0.15;;;5.80;99.90;;;;;;5026062;28;20122;-81
2022/11/27 04:01:57;;;;;;;1.75;0.73;;;5.70;99.90;;;;;;5007839;28;20492;-82
2022/11/27 04:04:24;;;;;;;0.93;0.80;;;5.70;99.90;;;;;;5047524;28;20105;-81
2022/11/27 04:06:49;;;;;;;0.00;0.00;;;5.70;99.90;;;;;;5052149;28;20037;-82
2022/11/27 04:09:15;;;;;;;0.10;0.10;;;5.70;50.10;;;;;;5066690;28;20107;-82
2022/11/27 04:11:40;;;;;;;0.17;0.17;;;5.60;99.90;;;;;;5049871;28;20030;-83
2022/11/27 04:14:06;;;;;;;5.82;1.88;;;5.60;99.90;;;;;;5070241;28;20437;-82
2022/11/27 04:16:32;;;;;;;5.15;1.23;;;5.70;99.90;;;;;;5069678;28;20703;-82
2022/11/27 04:18:57;;;;;;;0.25;0.25;;;5.60;99.90;;;;;;5069386;28;21025;-82
2022/11/27 04:21:23;;;;;;;0.45;0.45;;;5.60;99.90;;;;;;5069808;28;20061;-82
2022/11/27 04:23:49;;;;;;;0.70;0.25;;;5.60;99.90;;;;;;5069698;28;20056;-84
2022/11/27 04:26:14;;;;;;;0.75;0.75;;;5.60;99.90;;;;;;5070267;28;20403;-82
2022/11/27 04:28:40;;;;;;;12.60;1.45;;;5.50;1.00;;;;;;5051588;28;20047;-82
2022/11/27 04:31:06;;;;;;;2.47;0.95;;;5.50;1.00;;;;;;5069142;28;20044;-82
2022/11/27 04:33:31;;;;;;;0.40;0.40;;;5.50;99.90;;;;;;5068863;28;20045;-82
2022/11/27 04:35:57;;;;;;;0.03;0.03;;;5.50;1.00;;;;;;5069580;28;20051;-81
2022/11/27 04:38:23;;;;;;;1.00;1.00;;;5.60;99.90;;;;;;5068658;28;20044;-81
2022/11/27 04:40:52;;;;;;;0.00;0.00;;;5.60;99.90;;;;;;5069361;28;20047;-82
2022/11/27 04:43:18;;;;;;;0.60;0.60;;;5.50;99.90;;;;;;5068832;28;20572;-85
2022/11/27 04:45:43;;;;;;;0.52;0.52;;;5.60;1.00;;;;;;5069101;28;20048;-81
2022/11/27 04:48:09;;;;;;;0.70;0.30;;;5.60;99.90;;;;;;5068814;28;20049;-84
2022/11/27 04:50:35;;;;;;;3.10;0.60;;;5.50;99.90;;;;;;5068550;28;20060;-82
2022/11/27 04:53:00;;;;;;;0.28;0.28;;;5.50;1.00;;;;;;5069283;28;20048;-82
2022/11/27 04:55:26;;;;;;;6.95;1.63;;;5.50;1.00;;;;;;5069470;28;20052;-82
2022/11/27 04:57:52;;;;;;;1.90;1.77;;;5.40;1.00;;;;;;5069969;28;20156;-82
2022/11/27 05:00:18;;;;;;;0.30;0.30;;;5.50;1.00;;;;;;5069566;28;20063;-82
2022/11/27 05:02:44;;;;;;;0.08;0.08;;;5.50;1.00;;;;;;5068997;28;20175;-82
2022/11/27 05:05:09;;;;;;;0.90;0.75;;;5.50;1.00;;;;;;5069288;28;20587;-82
2022/11/27 05:07:35;;;;;;;0.30;0.30;;;5.60;1.00;;;;;;5051060;28;20044;-82
2022/11/27 05:10:04;;;;;;;1.75;1.25;;;5.50;1.00;;;;;;5068587;28;20079;-82
2022/11/27 05:12:30;;;;;;;0.10;0.10;;;5.50;1.00;;;;;;5069171;28;20375;-82
2022/11/27 05:14:55;;;;;;;0.15;0.15;;;5.50;1.00;;;;;;5069545;28;20060;-82
2022/11/27 05:17:21;;;;;;;0.00;0.00;;;5.50;1.00;;;;;;5069033;28;20491;-82
2022/11/27 05:19:47;;;;;;;0.05;0.05;;;5.50;1.00;;;;;;5051287;28;20098;-83
2022/11/27 05:22:12;;;;;;;2.40;0.47;;;5.50;1.00;;;;;;5069094;28;20552;-82
2022/11/27 05:24:38;;;;;;;0.40;0.40;;;6.40;1.00;;;;;;5069002;28;20040;-83
2022/11/27 05:27:03;;;;;;;0.10;0.10;;;5.50;1.00;;;;;;5068663;28;20098;-83
2022/11/27 05:29:29;;;;;;;0.75;0.75;;;5.40;99.90;;;;;;5068299;28;20040;-82
2022/11/27 05:31:55;;;;;;;1.20;0.88;;;5.30;1.00;;;;;;5068627;28;20044;-82
2022/11/27 05:34:20;;;;;;;0.43;0.43;;;5.40;1.00;;;;;;5068465;28;20048;-83
2022/11/27 05:36:46;;;;;;;0.20;0.20;;;5.10;1.00;;;;;;5068690;28;20045;-82
2022/11/27 05:39:15;;;;;;;2.05;1.13;;;5.50;1.00;;;;;;5068636;28;20048;-82
2022/11/27 05:41:42;;;;;;;0.93;0.68;;;5.40;99.90;;;;;;5051049;28;20458;-83
2022/11/27 05:44:13;;;;;;;1.55;0.30;;;5.30;1.00;;;;;;5068828;28;20072;-82
2022/11/27 05:46:39;;;;;;;0.80;0.80;;;5.30;1.00;;;;;;5069277;28;20045;-83
2022/11/27 05:49:05;;;;;;;0.10;0.10;;;5.30;1.00;;;;;;5068531;28;20433;-82
2022/11/27 05:51:30;;;;;;;0.00;0.00;;;5.30;1.00;;;;;;5068308;28;20057;-82
2022/11/27 05:53:56;;;;;;;0.43;0.32;;;5.30;1.00;;;;;;5068749;28;20119;-82
2022/11/27 05:56:22;;;;;;;0.88;0.50;;;5.20;33.40;;;;;;5068853;28;20040;-82
2022/11/27 05:58:50;;;;;;;1.45;1.35;;;5.30;51.10;;;;;;5068487;28;20043;-82
2022/11/27 06:01:17;;;;;;;0.00;0.00;;;5.30;1.00;;;;;;5068535;28;20056;-83
2022/11/27 06:03:43;;;;;;;0.00;0.00;;;5.30;1.00;;;;;;5033515;28;20052;-82
2022/11/27 06:06:12;;;;;;;0.28;0.25;;;6.20;1.00;;;;;;5068776;28;20076;-82
2022/11/27 06:08:39;;;;;;;0.20;0.20;;;5.30;1.00;;;;;;5067213;28;20048;-82
2022/11/27 06:11:08;;;;;;;0.32;0.32;;;5.80;99.90;;;;;;5068208;28;20559;-82
2022/11/27 06:13:35;;;;;;;2.10;1.17;;;4.70;99.90;;;;;;5067426;28;20479;-82
2022/11/27 06:16:13;;;;;;;6.03;0.68;;;6.00;99.90;;;;;;5068080;28;20487;-82
2022/11/27 06:18:39;;;;;;;5.25;2.08;;;5.50;53.10;;;;;;5068286;28;20085;-82
2022/11/27 06:21:06;;;;;;;0.10;0.10;;;5.70;1.00;;;;;;5067122;28;20053;-83
2022/11/27 06:23:31;;;;;;;1.70;0.50;;;5.50;11.80;;;;;;5049416;28;20054;-82
2022/11/27 06:25:57;;;;;;;0.00;0.00;;;5.40;99.90;;;;;;5067883;28;20048;-82
2022/11/27 06:28:23;;;;;;;0.20;0.20;;;5.50;62.20;;;;;;5067964;28;20044;-82
2022/11/27 06:30:48;;;;;;;1.10;0.85;;;5.40;1.00;;;;;;5067567;28;20036;-83
2022/11/27 06:33:14;;;;;;;0.00;0.00;;;5.40;99.90;;;;;;5067755;28;20048;-82
2022/11/27 06:35:40;;;;;;;0.30;0.30;;;5.50;11.50;;;;;;5049488;28;20433;-83
2022/11/27 06:38:05;;;;;;;0.00;0.00;;;5.50;1.00;;;;;;5067793;28;20494;-83
2022/11/27 06:40:31;;;;;;;0.00;0.00;;;5.40;89.80;;;;;;5067623;28;20112;-83
2022/11/27 06:42:56;;;;;;;1.50;0.08;;;5.50;1.00;;;;;;5049675;28;20151;-83
2022/11/27 06:45:22;;;;;;;4.35;0.77;;;5.40;99.90;;;;;;5067420;28;20048;-83
2022/11/27 06:47:48;;;;;;;0.60;0.60;;;5.50;99.90;;;;;;5067634;28;20075;-82
2022/11/27 06:50:13;;;;;;;0.57;0.55;;;5.40;32.70;;;;;;5049422;28;20448;-82
2022/11/27 06:52:39;;;;;;;0.22;0.22;;;5.40;98.60;;;;;;5049421;28;20087;-83
2022/11/27 06:55:05;;;;;;;0.85;0.85;;;5.50;78.10;;;;;;5066721;28;20056;-82
2022/11/27 06:57:30;;;;;;;0.20;0.20;;;5.50;1.00;;;;;;5067273;28;20051;-82
2022/11/27 06:59:56;;;;;;;0.00;0.00;;;5.50;99.90;;;;;;5067378;28;20143;-82
2022/11/27 07:02:22;;;;;;;0.55;0.30;;;6.50;99.90;;;;;;5067176;28;20352;-83
2022/11/27 07:04:47;;;;;;;0.00;0.00;;;5.50;1.00;;;;;;5065572;28;20113;-82
2022/11/27 07:07:13;;;;;;;4.47;0.85;;;5.50;1.00;;;;;;5065288;28;20052;-82
2022/11/27 07:09:38;;;;;;;0.00;0.00;;;5.50;1.00;;;;;;5067151;28;20387;-83
2022/11/27 07:12:05;;;;;;;0.63;0.63;;;5.60;99.90;;;;;;5067452;28;20520;-82
2022/11/27 07:14:30;;;;;;;0.10;0.10;;;5.50;1.00;;;;;;5067443;28;20430;-83
2022/11/27 07:16:56;;;;;;;0.55;0.47;;;5.50;99.90;;;;;;5049288;28;20052;-82
2022/11/27 07:19:21;;;;;;;0.75;0.25;;;5.50;99.90;;;;;;5049374;28;20045;-81
2022/11/27 07:21:47;;;;;;;0.98;0.38;;;5.60;1.00;;;;;;5067526;28;20059;-83
2022/11/27 07:24:13;;;;;;;1.27;1.10;;;5.50;1.00;;;;;;5048826;28;20053;-82
2022/11/27 07:26:39;;;;;;;0.30;0.30;;;5.60;1.00;;;;;;5049088;28;20049;-82
2022/11/27 07:29:04;;;;;;;0.52;0.45;;;5.60;99.90;;;;;;5049454;28;20065;-83
2022/11/27 07:31:30;;;;;;;0.90;0.55;;;5.60;99.90;;;;;;5049207;28;20052;-82
2022/11/27 07:33:57;;;;;;;0.32;0.32;;;5.70;99.90;;;;;;5051280;28;20577;-83
2022/11/27 07:36:25;;;;;;;2.28;1.42;;;6.50;99.90;;;;;;5053387;28;20135;-82
2022/11/27 07:38:51;;;;;;;0.00;0.00;;;6.60;99.90;;;;;;5052861;28;20418;-83
2022/11/27 07:41:17;;;;;;;0.30;0.30;;;5.80;99.90;;;;;;5070644;28;20059;-82
2022/11/27 07:43:43;;;;;;;0.22;0.22;;;6.80;99.90;;;;;;5069272;28;20063;-83
2022/11/27 07:46:15;;;;;;;0.10;0.10;;;5.80;99.90;;;;;;5071321;28;20402;-83
2022/11/27 07:48:41;;;;;;;1.75;1.33;;;6.50;1.00;;;;;;5053012;28;20059;-82
2022/11/27 07:51:09;;;;;;;1.15;1.02;;;5.90;1.00;;;;;;5070664;28;20060;-82
2022/11/27 07:53:37;;;;;;;0.35;0.35;;;5.90;99.90;;;;;;5052871;28;20110;-83
2022/11/27 07:56:04;;;;;;;0.00;0.00;;;6.40;99.90;;;;;;5068717;28;20048;-82
2022/11/27 07:58:29;;;;;;;0.10;0.10;;;5.90;99.90;;;;;;5051943;28;20376;-82
2022/11/27 08:00:55;;;;;;;0.10;0.10;;;5.90;1.00;;;;;;5051328;28;20070;-83
2022/11/27 08:03:22;;;;;;;0.00;0.00;;;6.00;99.90;;;;;;5068984;28;20051;-82
2022/11/27 08:05:48;;;;;;;2.22;0.88;;;6.00;99.90;;;;;;5050895;28;20062;-82
2022/11/27 08:08:13;;;;;;;0.40;0.40;;;6.10;99.90;;;;;;5069104;28;20056;-82
2022/11/27 08:10:40;;;;;;;2.05;1.50;;;6.10;99.90;;;;;;5069414;28;20084;-82
2022/11/27 08:13:05;;;;;;;1.10;0.77;;;6.20;1.00;;;;;;5051342;28;20091;-82
2022/11/27 08:15:35;;;;;;;0.13;0.13;;;7.10;99.90;;;;;;5049979;28;20613;-82
2022/11/27 08:18:01;;;;;;;3.85;2.45;;;5.90;1.00;;;;;;5030401;28;20580;-83
2022/11/27 08:20:27;;;;;;;0.00;0.00;;;6.30;1.00;;;;;;5049193;28;20084;-83
2022/11/27 08:22:52;;;;;;;0.70;0.70;;;6.40;1.00;;;;;;5048729;28;20079;-82
2022/11/27 08:25:18;;;;;;;1.35;0.63;;;6.40;99.90;;;;;;5048683;28;20049;-82
2022/11/27 08:27:45;;;;;;;0.32;0.32;;;6.50;99.90;;;;;;5048465;28;20045;-81
2022/11/27 08:30:11;;;;;;;0.10;0.10;;;6.50;99.90;;;;;;5048393;28;20128;-83
2022/11/27 08:32:41;;;;;;;0.10;0.10;;;6.50;99.90;;;;;;5048605;28;20116;-82
2022/11/27 08:35:08;;;;;;;2.50;0.88;;;6.50;99.90;;;;;;5030863;28;20053;-83
2022/11/27 08:37:34;;;;;;;0.22;0.22;;;6.50;1.00;;;;;;5048944;28;20132;-82
2022/11/27 08:39:59;;;;;;;1.00;0.85;;;6.50;99.90;;;;;;5048296;28;20049;-83
2022/11/27 08:42:25;;;;;;;0.73;0.73;;;6.40;1.00;;;;;;5048398;28;20104;-83
2022/11/27 08:44:51;;;;;;;1.42;0.10;;;6.40;99.90;;;;;;5047880;28;20056;-83
2022/11/27 08:47:16;;;;;;;0.73;0.73;;;6.40;98.90;;;;;;5048533;28;20048;-83
2022/11/27 08:49:43;;;;;;;0.10;0.10;;;6.40;99.90;;;;;;5048395;28;20040;-82
2022/11/27 08:52:09;;;;;;;0.38;0.38;;;6.40;1.00;;;;;;5064439;28;20064;-83
2022/11/27 08:54:35;;;;;;;0.00;0.00;;;6.40;1.00;;;;;;5068208;28;20058;-82
2022/11/27 08:57:00;;;;;;;0.45;0.45;;;6.80;1.00;;;;;;5050231;28;20075;-82
2022/11/27 08:59:26;;;;;;;0.20;0.20;;;6.30;99.90;;;;;;5068235;28;21005;-83
2022/11/27 09:01:51;;;;;;;0.63;0.60;;;6.40;99.90;;;;;;5067611;28;20056;-82
2022/11/27 09:04:17;;;;;;;0.70;0.70;;;6.30;99.90;;;;;;5050060;28;20112;-82
2022/11/27 09:06:43;;;;;;;0.08;0.08;;;7.00;99.90;;;;;;5067911;28;20080;-82
2022/11/27 09:09:09;;;;;;;0.20;0.20;;;6.30;99.90;;;;;;5067479;28;20165;-82
2022/11/27 09:11:35;;;;;;;1.45;1.10;;;6.20;99.90;;;;;;5067679;28;20037;-83
2022/11/27 09:14:03;;;;;;;0.70;0.70;;;6.10;1.00;;;;;;5068274;28;20052;-82
2022/11/27 09:16:29;;;;;;;3.00;1.88;;;6.10;1.00;;;;;;5067260;28;20044;-82
2022/11/27 09:18:56;;;;;;;1.58;0.68;;;6.20;74.40;;;;;;5067603;28;20059;-82
2022/11/27 09:21:25;;;;;;;0.20;0.20;;;6.20;1.00;;;;;;5067731;28;20127;-82
2022/11/27 09:23:53;;;;;;;0.20;0.20;;;6.20;1.00;;;;;;5067364;28;20055;-81
2022/11/27 09:26:19;;;;;;;0.45;0.45;;;6.30;18.10;;;;;;5067457;28;20136;-83
2022/11/27 09:28:45;;;;;;;0.20;0.20;;;6.30;99.90;;;;;;5067912;28;20132;-84
2022/11/27 09:31:13;;;;;;;0.80;0.55;;;6.30;1.00;;;;;;5067737;28;20088;-83
2022/11/27 09:33:40;;;;;;;0.22;0.20;;;6.40;99.90;;;;;;5067787;28;20097;-83
2022/11/27 09:36:08;;;;;;;22.60;0.73;;;6.30;99.90;;;;;;5067609;28;20048;-83
2022/11/27 09:38:34;;;;;;;1.23;0.88;;;6.30;99.90;;;;;;5066028;28;20824;-83
2022/11/27 09:41:13;;;;;;;1.95;0.57;;;6.20;99.90;;;;;;5067373;28;20108;-83
2022/11/27 09:43:51;;;;;;;0.05;0.05;;;6.40;99.90;;;;;;5066898;28;20150;-82
2022/11/27 09:46:37;;;;;;;0.10;0.10;;;6.20;99.90;;;;;;5066498;28;20052;-83
2022/11/27 09:49:08;;;;;;;0.10;0.10;;;6.20;99.90;;;;;;5066605;28;20075;-83
2022/11/27 09:51:45;;;;;;;0.15;0.15;;;6.10;99.90;;;;;;5066690;28;20373;-82
2022/11/27 09:54:15;;;;;;;0.88;0.85;;;6.10;99.90;;;;;;5067072;28;20445;-84
2022/11/27 09:56:44;;;;;;;3.53;0.70;;;6.10;99.90;;;;;;5065272;28;20508;-83
2022/11/27 09:59:16;;;;;;;0.45;0.45;;;6.00;1.00;;;;;;5066704;28;20037;-82
2022/11/27 10:01:43;;;;;;;1.17;1.08;;;6.00;1.00;;;;;;5066778;28;20420;-83
2022/11/27 10:04:11;;;;;;;0.57;0.57;;;5.90;99.90;;;;;;5066995;28;20049;-83
2022/11/27 10:07:23;;;;;;;0.10;0.10;;;6.70;99.90;;;;;;5067231;28;20040;-83
2022/11/27 10:10:11;;;;;;;0.22;0.22;;;5.80;1.00;;;;;;5066483;28;20048;-83
2022/11/27 10:12:39;;;;;;;3.92;0.70;;;5.80;1.00;;;;;;5066822;28;20513;-83
2022/11/27 10:15:21;;;;;;;2.72;0.82;;;5.70;99.90;;;;;;5066747;28;20490;-83
2022/11/27 10:18:07;;;;;;;2.40;1.80;;;5.70;99.90;;;;;;5067071;28;20052;-84
2022/11/27 10:20:48;;;;;;;0.20;0.20;;;5.70;99.90;;;;;;5049382;28;20052;-83
2022/11/27 10:23:45;;;;;;;0.28;0.20;;;5.60;99.90;;;;;;5066889;28;20052;-84
2022/11/27 10:26:44;;;;;;;2.63;1.00;;;5.70;99.90;;;;;;5049068;28;20090;-83
2022/11/27 10:29:35;;;;;;;0.30;0.30;;;5.60;99.90;;;;;;5050192;28;20589;-83
2022/11/27 10:32:19;;;;;;;0.63;0.63;;;5.60;1.00;;;;;;5048998;28;20056;-83
2022/11/27 10:35:06;;;;;;;0.30;0.30;;;5.80;1.00;;;;;;5067427;28;20052;-83
2022/11/27 10:37:31;;;;;;;0.55;0.55;;;5.60;1.00;;;;;;5066043;28;20701;-83
2022/11/27 10:40:06;;;;;;;5.63;0.85;;;5.60;69.20;;;;;;5047192;28;20111;-82
2022/11/27 10:43:03;;;;;;;0.52;0.47;;;5.60;15.20;;;;;;5029891;28;20079;-83
2022/11/27 10:45:52;;;;;;;0.22;0.22;;;5.70;1.00;;;;;;5047110;28;20048;-83
2022/11/27 10:48:18;;;;;;;1.10;1.00;;;5.60;16.00;;;;;;5046168;28;20056;-83
2022/11/27 10:50:44;;;;;;;0.35;0.35;;;5.60;53.00;;;;;;5052204;28;20060;-83
2022/11/27 10:53:17;;;;;;;0.00;0.00;;;5.60;87.30;;;;;;5067841;28;20087;-84
2022/11/27 10:56:01;;;;;;;0.20;0.10;;;5.60;74.20;;;;;;5068547;28;20071;-83
2022/11/27 10:58:31;;;;;;;0.20;0.20;;;5.60;83.70;;;;;;5049629;28;20097;-83
2022/11/27 11:01:06;;;;;;;0.03;0.03;;;5.60;94.10;;;;;;5067597;28;20063;-83
2022/11/27 11:03:32;;;;;;;0.57;0.57;;;5.60;99.90;;;;;;5049937;28;20036;-83
2022/11/27 11:06:17;;;;;;;0.20;0.20;;;5.60;99.90;;;;;;5068393;28;20113;-83
2022/11/27 11:08:43;;;;;;;0.20;0.20;;;5.70;63.30;;;;;;5070998;28;20048;-83
2022/11/27 11:11:09;;;;;;;0.38;0.38;;;5.70;4.20;;;;;;5072243;28;20056;-83
2022/11/27 11:13:45;;;;;;;1.20;0.50;;;5.70;99.90;;;;;;5072008;28;20041;-83
2022/11/27 11:16:10;;;;;;;0.25;0.25;;;5.70;99.90;;;;;;5071169;28;20053;-84
2022/11/27 11:18:49;;;;;;;0.50;0.50;;;5.70;99.90;;;;;;5072105;28;20183;-84
2022/11/27 11:21:28;;;;;;;2.00;0.88;;;5.70;99.90;;;;;;5053940;28;20056;-83
2022/11/27 11:24:17;;;;;;;0.35;0.30;;;5.80;99.90;;;;;;5072263;28;20527;-84
2022/11/27 11:27:12;;;;;;;0.25;0.25;;;5.80;99.90;;;;;;5053860;28;20516;-84
2022/11/27 11:29:47;;;;;;;0.00;0.00;;;5.80;99.90;;;;;;5031940;28;20058;-83
2022/11/27 11:32:23;;;;;;;0.00;0.00;;;5.70;99.90;;;;;;5071538;28;20052;-83
2022/11/27 11:34:54;;;;;;;;;;;5.70;99.90;;;;;;5053966;28;20049;-83
2022/11/27 11:37:27;;;;;;;0.40;0.40;;;5.70;99.90;;;;;;5071058;28;19931;-83
2022/11/27 11:40:13;;;;;;;0.00;0.00;;;5.70;99.90;;;;;;5071082;28;20068;-84
2022/11/27 11:42:57;;;;;;;0.55;0.40;;;5.80;99.90;;;;;;5070712;28;20052;-84
2022/11/27 11:45:27;;;;;;;0.95;0.65;;;5.80;99.90;;;;;;5069596;28;20053;-83
2022/11/27 11:47:56;;;;;;;1.10;0.95;;;5.80;94.60;;;;;;5070576;28;20573;-84
2022/11/27 11:50:37;;;;;;;0.65;0.65;;;5.80;94.50;;;;;;5070815;28;20097;-83
2022/11/27 11:53:23;;;;;;;0.47;0.47;;;5.80;99.90;;;;;;5070186;28;20060;-83
2022/11/27 11:56:07;;;;;;;0.93;0.70;;;5.80;99.90;;;;;;5070181;28;20113;-83
2022/11/27 11:58:54;;;;;;;2.70;1.50;;;5.80;99.90;;;;;;5070263;28;20044;-84
2022/11/27 12:01:45;;;;;;;0.68;0.68;;;5.90;99.90;;;;;;5069857;28;20479;-84
2022/11/27 12:04:47;;;;;;;0.30;0.20;;;5.80;99.90;;;;;;5051706;28;20056;-83
2022/11/27 12:07:24;;;;;;;2.50;0.75;;;5.80;99.90;;;;;;5069771;28;20415;-84
2022/11/27 12:10:29;;;;;;;0.43;0.43;;;6.00;99.90;;;;;;5051619;28;20102;-84
2022/11/27 12:13:19;;;;;;;0.20;0.20;;;6.00;91.80;;;;;;5013922;28;20092;-84
2022/11/27 12:15:51;;;;;;;0.25;0.25;;;5.90;99.90;;;;;;5069924;28;20051;-84
2022/11/27 12:18:25;;;;;;;0.22;0.22;;;6.00;99.90;;;;;;5069358;28;20053;-84
2022/11/27 12:21:16;;;;;;;0.45;0.20;;;6.00;99.90;;;;;;5069146;28;20052;-84
2022/11/27 12:24:10;;;;;;;0.80;0.65;;;6.00;99.90;;;;;;5052256;28;20068;-84
2022/11/27 12:27:11;;;;;;;0.50;0.45;;;6.10;78.80;;;;;;5052307;28;20399;-84
2022/11/27 12:29:45;;;;;;;0.75;0.70;;;6.10;99.90;;;;;;5069820;28;20128;-83
2022/11/27 12:32:34;;;;;;;1.08;0.85;;;6.10;99.90;;;;;;5051681;28;20091;-84
2022/11/27 12:35:33;;;;;;;0.55;0.55;;;6.00;97.00;;;;;;5051250;28;20052;-83
2022/11/27 12:38:24;;;;;;;0.82;0.65;;;6.10;99.90;;;;;;5070091;28;20116;-84
2022/11/27 12:41:17;;;;;;;0.10;0.10;;;6.00;99.90;;;;;;5050928;28;20080;-84
2022/11/27 12:43:54;;;;;;;2.55;0.43;;;6.00;99.90;;;;;;5069825;28;20373;-84
2022/11/27 12:46:32;;;;;;;0.80;0.80;;;6.00;99.90;;;;;;5051785;28;20518;-84
2022/11/27 12:49:09;;;;;;;1.45;1.35;;;6.00;99.90;;;;;;5051932;28;20126;-84
2022/11/27 12:51:41;;;;;;;;;;;6.00;99.90;;;;;;5069107;28;20091;-84
2022/11/27 12:54:16;;;;;;;0.20;0.20;;;6.00;99.90;;;;;;5069241;28;19920;-83
2022/11/27 12:56:50;;;;;;;0.10;0.10;;;6.10;99.90;;;;;;5051617;28;20393;-84
2022/11/27 12:59:32;;;;;;;0.20;0.20;;;6.10;99.90;;;;;;5069464;28;20097;-84
2022/11/27 13:02:13;;;;;;;0.47;0.47;;;6.10;97.50;;;;;;5052635;28;20049;-84
2022/11/27 13:04:58;;;;;;;1.98;1.15;;;6.10;99.90;;;;;;5039348;28;20071;-84
2022/11/27 13:07:47;;;;;;;0.45;0.45;;;6.10;99.90;;;;;;5068875;28;20052;-84
2022/11/27 13:10:37;;;;;;;0.08;0.08;;;6.10;99.90;;;;;;5049396;28;20048;-84
2022/11/27 13:13:09;;;;;;;0.47;0.35;;;6.00;99.90;;;;;;5031106;28;20092;-83
2022/11/27 13:15:44;;;;;;;0.22;0.22;;;6.10;99.90;;;;;;5066458;28;20068;-83
2022/11/27 13:18:31;;;;;;;0.20;0.17;;;6.10;99.90;;;;;;5050723;28;20120;-83
2022/11/27 13:21:01;;;;;;;0.00;0.00;;;6.10;99.90;;;;;;5061134;28;20040;-84